sensor_id;sensor_type;location;lat;lon;timestamp;temperature;humidity
40822;DHT22;26542;50.836;5.356;2023-04-03T00:01:35;3.40;99.90
40822;DHT22;26542;50.836;5.356;2023-04-03T00:04:04;3.40;99.90
40822;DHT22;26542;50.836;5.356;2023-04-03T00:06:30;3.50;99.90
40822;DHT22;26542;50.836;5.356;2023-04-03T00:08:56;3.50;99.90
40822;DHT22;26542;50.836;5.356;2023-04-03T00:11:22;3.40;99.90
40822;DHT22;26542;50.836;5.356;2023-04-03T00:13:48;3.40;99.90
40822;DHT22;26542;50.836;5.356;2023-04-03T00:16:13;3.30;99.90
40822;DHT22;26542;50.836;5.356;2023-04-03T00:18:40;3.30;99.90
40822;DHT22;26542;50.836;5.356;2023-04-03T00:21:06;3.30;99.90
40822;DHT22;26542;50.836;5.356;2023-04-03T00:23:33;3.30;99.90
40822;DHT22;26542;50.836;5.356;2023-04-03T00:25:58;3.30;99.90
40822;DHT22;26542;50.836;5.356;2023-04-03T00:28:24;3.20;99.90
40822;DHT22;26542;50.836;5.356;2023-04-03T00:30:51;3.20;99.90
40822;DHT22;26542;50.836;5.356;2023-04-03T00:33:16;3.10;99.90
40822;DHT22;26542;50.836;5.356;2023-04-03T00:35:42;3.20;99.90
40822;DHT22;26542;50.836;5.356;2023-04-03T00:38:08;3.20;99.90
40822;DHT22;26542;50.836;5.356;2023-04-03T00:40:42;3.20;99.90
40822;DHT22;26542;50.836;5.356;2023-04-03T00:43:21;3.20;99.90
40822;DHT22;26542;50.836;5.356;2023-04-03T00:45:49;3.20;99.90
40822;DHT22;26542;50.836;5.356;2023-04-03T00:48:31;3.10;99.90
40822;DHT22;26542;50.836;5.356;2023-04-03T00:50:58;3.10;99.90
40822;DHT22;26542;50.836;5.356;2023-04-03T00:53:30;3.10;99.90
40822;DHT22;26542;50.836;5.356;2023-04-03T00:55:57;3.10;99.90
40822;DHT22;26542;50.836;5.356;2023-04-03T00:58:37;3.10;99.90
40822;DHT22;26542;50.836;5.356;2023-04-03T01:01:07;3.00;99.90
40822;DHT22;26542;50.836;5.356;2023-04-03T01:03:33;3.00;99.90
40822;DHT22;26542;50.836;5.356;2023-04-03T01:06:00;3.00;99.90
40822;DHT22;26542;50.836;5.356;2023-04-03T01:08:26;3.00;99.90
40822;DHT22;26542;50.836;5.356;2023-04-03T01:10:52;3.00;99.90
40822;DHT22;26542;50.836;5.356;2023-04-03T01:13:30;2.90;99.90
40822;DHT22;26542;50.836;5.356;2023-04-03T01:15:56;2.90;99.90
40822;DHT22;26542;50.836;5.356;2023-04-03T01:18:24;2.90;99.90
40822;DHT22;26542;50.836;5.356;2023-04-03T01:26:06;2.80;99.90
40822;DHT22;26542;50.836;5.356;2023-04-03T01:28:35;2.90;99.90
40822;DHT22;26542;50.836;5.356;2023-04-03T01:31:27;2.90;99.90
40822;DHT22;26542;50.836;5.356;2023-04-03T01:33:54;2.80;99.90
40822;DHT22;26542;50.836;5.356;2023-04-03T01:36:23;2.80;99.90
40822;DHT22;26542;50.836;5.356;2023-04-03T01:38:50;2.90;99.90
40822;DHT22;26542;50.836;5.356;2023-04-03T01:41:16;2.70;99.90
40822;DHT22;26542;50.836;5.356;2023-04-03T01:43:43;2.70;99.90
40822;DHT22;26542;50.836;5.356;2023-04-03T01:46:08;2.60;99.90
40822;DHT22;26542;50.836;5.356;2023-04-03T01:48:34;2.70;99.90
40822;DHT22;26542;50.836;5.356;2023-04-03T01:51:00;2.70;99.90
40822;DHT22;26542;50.836;5.356;2023-04-03T01:53:26;2.70;99.90
40822;DHT22;26542;50.836;5.356;2023-04-03T01:55:52;2.70;99.90
40822;DHT22;26542;50.836;5.356;2023-04-03T01:58:17;2.70;99.90
40822;DHT22;26542;50.836;5.356;2023-04-03T02:00:43;2.60;99.90
40822;DHT22;26542;50.836;5.356;2023-04-03T02:03:09;2.70;99.90
40822;DHT22;26542;50.836;5.356;2023-04-03T02:05:35;2.60;99.90
40822;DHT22;26542;50.836;5.356;2023-04-03T02:08:01;2.60;99.90
40822;DHT22;26542;50.836;5.356;2023-04-03T02:10:26;2.50;99.90
40822;DHT22;26542;50.836;5.356;2023-04-03T02:12:52;2.40;99.90
40822;DHT22;26542;50.836;5.356;2023-04-03T02:15:18;2.40;99.90
40822;DHT22;26542;50.836;5.356;2023-04-03T02:17:44;2.40;99.90
40822;DHT22;26542;50.836;5.356;2023-04-03T02:20:10;2.50;99.90
40822;DHT22;26542;50.836;5.356;2023-04-03T02:22:36;2.40;99.90
40822;DHT22;26542;50.836;5.356;2023-04-03T02:25:02;2.40;99.90
40822;DHT22;26542;50.836;5.356;2023-04-03T02:27:28;2.30;99.90
40822;DHT22;26542;50.836;5.356;2023-04-03T02:29:53;2.30;99.90
40822;DHT22;26542;50.836;5.356;2023-04-03T02:32:19;2.30;99.90
40822;DHT22;26542;50.836;5.356;2023-04-03T02:34:45;2.30;99.90
40822;DHT22;26542;50.836;5.356;2023-04-03T02:37:11;2.30;99.90
40822;DHT22;26542;50.836;5.356;2023-04-03T02:39:37;2.30;99.90
40822;DHT22;26542;50.836;5.356;2023-04-03T02:42:02;2.40;99.90
40822;DHT22;26542;50.836;5.356;2023-04-03T02:44:29;2.30;99.90
40822;DHT22;26542;50.836;5.356;2023-04-03T02:46:55;2.30;99.90
40822;DHT22;26542;50.836;5.356;2023-04-03T02:49:21;2.30;99.90
40822;DHT22;26542;50.836;5.356;2023-04-03T02:51:47;2.30;99.90
40822;DHT22;26542;50.836;5.356;2023-04-03T02:54:13;2.20;99.90
40822;DHT22;26542;50.836;5.356;2023-04-03T02:56:38;2.10;99.90
40822;DHT22;26542;50.836;5.356;2023-04-03T02:59:04;2.20;99.90
40822;DHT22;26542;50.836;5.356;2023-04-03T03:01:30;2.20;99.90
40822;DHT22;26542;50.836;5.356;2023-04-03T03:03:58;2.10;99.90
40822;DHT22;26542;50.836;5.356;2023-04-03T03:06:24;2.30;99.90
40822;DHT22;26542;50.836;5.356;2023-04-03T03:08:50;2.20;99.90
40822;DHT22;26542;50.836;5.356;2023-04-03T03:11:16;2.20;99.90
40822;DHT22;26542;50.836;5.356;2023-04-03T03:13:41;2.10;99.90
40822;DHT22;26542;50.836;5.356;2023-04-03T03:16:08;2.10;99.90
40822;DHT22;26542;50.836;5.356;2023-04-03T03:18:34;2.00;99.90
40822;DHT22;26542;50.836;5.356;2023-04-03T03:21:01;2.10;99.90
40822;DHT22;26542;50.836;5.356;2023-04-03T03:23:28;2.00;99.90
40822;DHT22;26542;50.836;5.356;2023-04-03T03:26:09;2.00;99.90
40822;DHT22;26542;50.836;5.356;2023-04-03T03:28:36;2.00;99.90
40822;DHT22;26542;50.836;5.356;2023-04-03T03:31:02;2.00;99.90
40822;DHT22;26542;50.836;5.356;2023-04-03T03:33:29;2.00;99.90
40822;DHT22;26542;50.836;5.356;2023-04-03T03:35:55;2.00;99.90
40822;DHT22;26542;50.836;5.356;2023-04-03T03:38:22;2.00;99.90
40822;DHT22;26542;50.836;5.356;2023-04-03T03:40:48;2.00;99.90
40822;DHT22;26542;50.836;5.356;2023-04-03T03:43:15;2.00;99.90
40822;DHT22;26542;50.836;5.356;2023-04-03T03:45:41;1.90;99.90
40822;DHT22;26542;50.836;5.356;2023-04-03T03:48:07;1.90;99.90
40822;DHT22;26542;50.836;5.356;2023-04-03T03:50:33;2.20;99.90
40822;DHT22;26542;50.836;5.356;2023-04-03T03:52:58;1.90;99.90
40822;DHT22;26542;50.836;5.356;2023-04-03T03:55:24;1.90;99.90
40822;DHT22;26542;50.836;5.356;2023-04-03T03:57:50;1.90;99.90
40822;DHT22;26542;50.836;5.356;2023-04-03T04:00:16;2.00;99.90
40822;DHT22;26542;50.836;5.356;2023-04-03T04:02:42;1.90;99.90
40822;DHT22;26542;50.836;5.356;2023-04-03T04:05:08;1.90;99.90
40822;DHT22;26542;50.836;5.356;2023-04-03T04:07:34;1.90;99.90
40822;DHT22;26542;50.836;5.356;2023-04-03T04:10:00;1.90;99.90
40822;DHT22;26542;50.836;5.356;2023-04-03T04:12:26;1.90;99.90
40822;DHT22;26542;50.836;5.356;2023-04-03T04:14:52;1.80;99.90
40822;DHT22;26542;50.836;5.356;2023-04-03T04:17:18;1.80;99.90
40822;DHT22;26542;50.836;5.356;2023-04-03T04:19:43;1.90;99.90
40822;DHT22;26542;50.836;5.356;2023-04-03T04:22:09;1.80;99.90
40822;DHT22;26542;50.836;5.356;2023-04-03T04:24:35;1.80;99.90
40822;DHT22;26542;50.836;5.356;2023-04-03T04:27:00;1.90;99.90
40822;DHT22;26542;50.836;5.356;2023-04-03T04:29:26;1.80;99.90
40822;DHT22;26542;50.836;5.356;2023-04-03T04:31:52;1.70;99.90
40822;DHT22;26542;50.836;5.356;2023-04-03T04:34:17;1.80;99.90
40822;DHT22;26542;50.836;5.356;2023-04-03T04:36:43;1.70;99.90
40822;DHT22;26542;50.836;5.356;2023-04-03T04:39:09;1.90;99.90
40822;DHT22;26542;50.836;5.356;2023-04-03T04:41:35;1.70;99.90
40822;DHT22;26542;50.836;5.356;2023-04-03T04:44:00;1.70;99.90
40822;DHT22;26542;50.836;5.356;2023-04-03T04:46:26;1.70;99.90
40822;DHT22;26542;50.836;5.356;2023-04-03T04:48:52;2.00;99.90
40822;DHT22;26542;50.836;5.356;2023-04-03T04:51:18;1.70;99.90
40822;DHT22;26542;50.836;5.356;2023-04-03T04:53:44;1.70;99.90
40822;DHT22;26542;50.836;5.356;2023-04-03T04:56:10;1.70;99.90
40822;DHT22;26542;50.836;5.356;2023-04-03T04:58:36;1.70;99.90
40822;DHT22;26542;50.836;5.356;2023-04-03T05:01:04;1.60;99.90
40822;DHT22;26542;50.836;5.356;2023-04-03T05:03:31;1.60;99.90
40822;DHT22;26542;50.836;5.356;2023-04-03T05:05:57;1.70;99.90
40822;DHT22;26542;50.836;5.356;2023-04-03T05:08:22;1.80;99.90
40822;DHT22;26542;50.836;5.356;2023-04-03T05:10:48;1.70;99.90
40822;DHT22;26542;50.836;5.356;2023-04-03T05:13:14;1.60;99.90
40822;DHT22;26542;50.836;5.356;2023-04-03T05:15:40;1.60;99.90
40822;DHT22;26542;50.836;5.356;2023-04-03T05:18:06;1.60;99.90
40822;DHT22;26542;50.836;5.356;2023-04-03T05:20:33;1.60;99.90
40822;DHT22;26542;50.836;5.356;2023-04-03T05:22:59;1.50;99.90
40822;DHT22;26542;50.836;5.356;2023-04-03T05:25:24;1.50;99.90
40822;DHT22;26542;50.836;5.356;2023-04-03T05:27:50;1.50;99.90
40822;DHT22;26542;50.836;5.356;2023-04-03T05:30:17;1.50;99.90
40822;DHT22;26542;50.836;5.356;2023-04-03T05:32:43;1.60;99.90
40822;DHT22;26542;50.836;5.356;2023-04-03T05:35:09;1.50;99.90
40822;DHT22;26542;50.836;5.356;2023-04-03T05:37:35;1.50;99.90
40822;DHT22;26542;50.836;5.356;2023-04-03T05:40:01;1.50;99.90
40822;DHT22;26542;50.836;5.356;2023-04-03T05:42:27;1.50;99.90
40822;DHT22;26542;50.836;5.356;2023-04-03T05:44:53;1.50;99.90
40822;DHT22;26542;50.836;5.356;2023-04-03T05:47:19;1.60;99.90
40822;DHT22;26542;50.836;5.356;2023-04-03T05:49:45;1.60;99.90
40822;DHT22;26542;50.836;5.356;2023-04-03T05:52:25;2.00;99.90
40822;DHT22;26542;50.836;5.356;2023-04-03T05:54:52;1.60;99.90
40822;DHT22;26542;50.836;5.356;2023-04-03T05:57:18;1.70;99.90
40822;DHT22;26542;50.836;5.356;2023-04-03T05:59:44;1.60;99.90
40822;DHT22;26542;50.836;5.356;2023-04-03T06:02:22;2.20;99.90
40822;DHT22;26542;50.836;5.356;2023-04-03T06:04:48;1.70;99.90
40822;DHT22;26542;50.836;5.356;2023-04-03T06:07:23;1.70;99.90
40822;DHT22;26542;50.836;5.356;2023-04-03T06:09:50;1.70;99.90
40822;DHT22;26542;50.836;5.356;2023-04-03T06:12:16;1.70;99.90
40822;DHT22;26542;50.836;5.356;2023-04-03T06:14:42;1.70;99.90
40822;DHT22;26542;50.836;5.356;2023-04-03T06:17:08;1.80;99.90
40822;DHT22;26542;50.836;5.356;2023-04-03T06:19:34;1.90;99.90
40822;DHT22;26542;50.836;5.356;2023-04-03T06:22:00;2.00;99.90
40822;DHT22;26542;50.836;5.356;2023-04-03T06:24:26;2.10;99.90
40822;DHT22;26542;50.836;5.356;2023-04-03T06:26:52;2.30;99.90
40822;DHT22;26542;50.836;5.356;2023-04-03T06:29:21;2.40;99.90
40822;DHT22;26542;50.836;5.356;2023-04-03T06:31:47;2.60;99.90
40822;DHT22;26542;50.836;5.356;2023-04-03T06:34:13;2.80;99.90
40822;DHT22;26542;50.836;5.356;2023-04-03T06:36:41;2.90;99.90
40822;DHT22;26542;50.836;5.356;2023-04-03T06:39:09;2.90;99.90
40822;DHT22;26542;50.836;5.356;2023-04-03T06:41:38;3.20;99.90
40822;DHT22;26542;50.836;5.356;2023-04-03T06:44:04;3.20;99.90
40822;DHT22;26542;50.836;5.356;2023-04-03T06:46:30;3.40;99.90
40822;DHT22;26542;50.836;5.356;2023-04-03T06:48:55;3.40;99.90
40822;DHT22;26542;50.836;5.356;2023-04-03T06:51:23;3.90;99.90
40822;DHT22;26542;50.836;5.356;2023-04-03T06:53:51;3.60;99.90
40822;DHT22;26542;50.836;5.356;2023-04-03T06:56:17;3.70;99.90
40822;DHT22;26542;50.836;5.356;2023-04-03T06:58:44;3.70;99.90
40822;DHT22;26542;50.836;5.356;2023-04-03T07:01:11;3.70;99.90
40822;DHT22;26542;50.836;5.356;2023-04-03T07:03:37;3.70;99.90
40822;DHT22;26542;50.836;5.356;2023-04-03T07:06:04;3.80;99.90
40822;DHT22;26542;50.836;5.356;2023-04-03T07:08:31;3.90;99.90
40822;DHT22;26542;50.836;5.356;2023-04-03T07:10:57;4.00;99.90
40822;DHT22;26542;50.836;5.356;2023-04-03T07:13:23;4.10;99.90
40822;DHT22;26542;50.836;5.356;2023-04-03T07:15:49;4.20;99.90
40822;DHT22;26542;50.836;5.356;2023-04-03T07:18:15;4.20;99.90
40822;DHT22;26542;50.836;5.356;2023-04-03T07:20:42;4.30;99.90
40822;DHT22;26542;50.836;5.356;2023-04-03T07:23:08;4.40;99.90
40822;DHT22;26542;50.836;5.356;2023-04-03T07:25:34;4.40;99.90
40822;DHT22;26542;50.836;5.356;2023-04-03T07:28:00;4.50;99.90
40822;DHT22;26542;50.836;5.356;2023-04-03T07:30:26;4.50;99.90
40822;DHT22;26542;50.836;5.356;2023-04-03T07:32:52;4.60;99.90
40822;DHT22;26542;50.836;5.356;2023-04-03T07:35:18;4.60;99.90
40822;DHT22;26542;50.836;5.356;2023-04-03T07:37:44;4.70;99.90
40822;DHT22;26542;50.836;5.356;2023-04-03T07:40:10;4.70;99.90
40822;DHT22;26542;50.836;5.356;2023-04-03T07:42:36;4.80;99.90
40822;DHT22;26542;50.836;5.356;2023-04-03T07:45:03;4.90;99.90
40822;DHT22;26542;50.836;5.356;2023-04-03T07:47:29;5.00;99.90
40822;DHT22;26542;50.836;5.356;2023-04-03T07:49:55;5.00;99.90
40822;DHT22;26542;50.836;5.356;2023-04-03T07:52:22;5.00;99.90
40822;DHT22;26542;50.836;5.356;2023-04-03T07:54:48;5.10;99.90
40822;DHT22;26542;50.836;5.356;2023-04-03T07:57:14;5.10;99.90
40822;DHT22;26542;50.836;5.356;2023-04-03T07:59:40;5.20;99.90
40822;DHT22;26542;50.836;5.356;2023-04-03T08:02:09;5.30;99.90
40822;DHT22;26542;50.836;5.356;2023-04-03T08:04:35;5.40;99.90
40822;DHT22;26542;50.836;5.356;2023-04-03T08:07:01;5.50;99.90
40822;DHT22;26542;50.836;5.356;2023-04-03T08:09:27;5.70;99.90
40822;DHT22;26542;50.836;5.356;2023-04-03T08:11:52;5.80;99.90
40822;DHT22;26542;50.836;5.356;2023-04-03T08:14:19;5.90;99.90
40822;DHT22;26542;50.836;5.356;2023-04-03T08:16:47;6.10;99.90
40822;DHT22;26542;50.836;5.356;2023-04-03T08:19:14;6.20;99.90
40822;DHT22;26542;50.836;5.356;2023-04-03T08:21:41;6.20;99.90
40822;DHT22;26542;50.836;5.356;2023-04-03T08:24:08;6.10;99.90
40822;DHT22;26542;50.836;5.356;2023-04-03T08:26:34;6.20;99.90
40822;DHT22;26542;50.836;5.356;2023-04-03T08:29:00;6.30;99.90
40822;DHT22;26542;50.836;5.356;2023-04-03T08:31:26;6.50;99.90
40822;DHT22;26542;50.836;5.356;2023-04-03T08:33:52;6.60;99.90
40822;DHT22;26542;50.836;5.356;2023-04-03T08:36:26;6.70;99.90
40822;DHT22;26542;50.836;5.356;2023-04-03T08:38:52;6.80;99.90
40822;DHT22;26542;50.836;5.356;2023-04-03T08:41:34;6.90;99.90
40822;DHT22;26542;50.836;5.356;2023-04-03T08:44:31;7.00;99.90
40822;DHT22;26542;50.836;5.356;2023-04-03T08:47:16;7.00;99.90
40822;DHT22;26542;50.836;5.356;2023-04-03T08:49:51;7.10;99.90
40822;DHT22;26542;50.836;5.356;2023-04-03T08:57:47;7.50;99.90
40822;DHT22;26542;50.836;5.356;2023-04-03T09:00:21;7.60;99.90
40822;DHT22;26542;50.836;5.356;2023-04-03T09:02:50;7.70;99.90
40822;DHT22;26542;50.836;5.356;2023-04-03T09:14:07;8.00;99.90
40822;DHT22;26542;50.836;5.356;2023-04-03T09:16:54;8.20;99.90
40822;DHT22;26542;50.836;5.356;2023-04-03T09:22:25;8.40;99.90
40822;DHT22;26542;50.836;5.356;2023-04-03T09:27:26;8.50;99.90
40822;DHT22;26542;50.836;5.356;2023-04-03T09:29:54;8.50;99.90
40822;DHT22;26542;50.836;5.356;2023-04-03T09:34:54;8.50;99.90
40822;DHT22;26542;50.836;5.356;2023-04-03T09:37:43;8.60;99.90
40822;DHT22;26542;50.836;5.356;2023-04-03T09:40:30;8.80;99.90
40822;DHT22;26542;50.836;5.356;2023-04-03T09:43:02;8.80;98.50
40822;DHT22;26542;50.836;5.356;2023-04-03T09:45:34;8.80;99.50
40822;DHT22;26542;50.836;5.356;2023-04-03T09:51:00;9.00;98.20
40822;DHT22;26542;50.836;5.356;2023-04-03T09:53:37;9.00;98.80
40822;DHT22;26542;50.836;5.356;2023-04-03T09:59:12;9.10;99.10
40822;DHT22;26542;50.836;5.356;2023-04-03T10:01:43;9.20;98.90
40822;DHT22;26542;50.836;5.356;2023-04-03T10:04:16;9.00;98.40
40822;DHT22;26542;50.836;5.356;2023-04-03T10:06:45;9.10;98.70
40822;DHT22;26542;50.836;5.356;2023-04-03T10:09:30;9.20;99.20
40822;DHT22;26542;50.836;5.356;2023-04-03T10:12:02;9.40;98.50
40822;DHT22;26542;50.836;5.356;2023-04-03T10:14:58;9.40;97.50
40822;DHT22;26542;50.836;5.356;2023-04-03T10:23:01;9.60;91.60
40822;DHT22;26542;50.836;5.356;2023-04-03T10:25:50;9.50;93.50
40822;DHT22;26542;50.836;5.356;2023-04-03T10:31:01;9.50;93.00
40822;DHT22;26542;50.836;5.356;2023-04-03T10:36:56;9.70;92.80
40822;DHT22;26542;50.836;5.356;2023-04-03T10:42:27;9.90;91.40
40822;DHT22;26542;50.836;5.356;2023-04-03T10:45:32;9.80;92.30
40822;DHT22;26542;50.836;5.356;2023-04-03T10:59:02;10.20;91.90
40822;DHT22;26542;50.836;5.356;2023-04-03T11:01:34;10.30;91.40
40822;DHT22;26542;50.836;5.356;2023-04-03T11:04:04;10.50;91.80
40822;DHT22;26542;50.836;5.356;2023-04-03T11:06:44;10.60;91.10
40822;DHT22;26542;50.836;5.356;2023-04-03T11:09:30;10.60;90.20
40822;DHT22;26542;50.836;5.356;2023-04-03T11:12:10;10.70;89.90
40822;DHT22;26542;50.836;5.356;2023-04-03T11:14:38;10.80;87.50
40822;DHT22;26542;50.836;5.356;2023-04-03T11:22:47;11.10;84.40
40822;DHT22;26542;50.836;5.356;2023-04-03T11:25:19;11.20;86.00
40822;DHT22;26542;50.836;5.356;2023-04-03T11:27:58;11.20;89.30
40822;DHT22;26542;50.836;5.356;2023-04-03T11:35:32;11.30;85.90
40822;DHT22;26542;50.836;5.356;2023-04-03T11:37:59;11.30;87.60
40822;DHT22;26542;50.836;5.356;2023-04-03T11:40:29;11.30;82.10
40822;DHT22;26542;50.836;5.356;2023-04-03T11:50:47;11.50;84.50
40822;DHT22;26542;50.836;5.356;2023-04-03T11:58:17;11.40;83.40
40822;DHT22;26542;50.836;5.356;2023-04-03T12:16:21;11.80;81.50
40822;DHT22;26542;50.836;5.356;2023-04-03T12:27:02;12.20;79.50
40822;DHT22;26542;50.836;5.356;2023-04-03T12:40:56;12.30;80.70
40822;DHT22;26542;50.836;5.356;2023-04-03T12:46:03;12.20;86.20
40822;DHT22;26542;50.836;5.356;2023-04-03T12:48:32;12.40;82.00
40822;DHT22;26542;50.836;5.356;2023-04-03T12:50:59;12.30;78.20
40822;DHT22;26542;50.836;5.356;2023-04-03T12:53:34;12.30;83.40
40822;DHT22;26542;50.836;5.356;2023-04-03T12:58:51;12.20;80.60
40822;DHT22;26542;50.836;5.356;2023-04-03T13:01:22;12.20;77.70
40822;DHT22;26542;50.836;5.356;2023-04-03T13:03:51;12.10;79.30
40822;DHT22;26542;50.836;5.356;2023-04-03T13:06:21;11.90;80.00
40822;DHT22;26542;50.836;5.356;2023-04-03T13:08:51;12.00;80.00
40822;DHT22;26542;50.836;5.356;2023-04-03T13:11:19;12.00;78.60
40822;DHT22;26542;50.836;5.356;2023-04-03T13:14:17;12.20;79.00
40822;DHT22;26542;50.836;5.356;2023-04-03T13:19:27;12.60;85.30
40822;DHT22;26542;50.836;5.356;2023-04-03T13:22:07;12.70;86.60
40822;DHT22;26542;50.836;5.356;2023-04-03T13:24:37;12.90;83.80
40822;DHT22;26542;50.836;5.356;2023-04-03T13:27:04;13.00;79.10
40822;DHT22;26542;50.836;5.356;2023-04-03T13:29:34;13.00;83.70
40822;DHT22;26542;50.836;5.356;2023-04-03T13:32:01;13.20;80.90
40822;DHT22;26542;50.836;5.356;2023-04-03T13:34:38;13.30;81.00
40822;DHT22;26542;50.836;5.356;2023-04-03T13:37:06;13.10;78.40
40822;DHT22;26542;50.836;5.356;2023-04-03T13:39:39;13.20;78.90
40822;DHT22;26542;50.836;5.356;2023-04-03T13:42:35;13.20;79.90
40822;DHT22;26542;50.836;5.356;2023-04-03T13:45:29;13.50;80.30
40822;DHT22;26542;50.836;5.356;2023-04-03T13:48:17;13.50;81.90
40822;DHT22;26542;50.836;5.356;2023-04-03T13:53:24;12.80;79.40
40822;DHT22;26542;50.836;5.356;2023-04-03T13:55:58;13.00;78.90
40822;DHT22;26542;50.836;5.356;2023-04-03T13:58:27;12.90;78.20
40822;DHT22;26542;50.836;5.356;2023-04-03T14:00:55;13.00;78.50
40822;DHT22;26542;50.836;5.356;2023-04-03T14:06:15;13.30;77.40
40822;DHT22;26542;50.836;5.356;2023-04-03T14:08:43;13.20;74.10
40822;DHT22;26542;50.836;5.356;2023-04-03T14:11:23;13.10;75.70
40822;DHT22;26542;50.836;5.356;2023-04-03T14:13:50;13.10;78.50
40822;DHT22;26542;50.836;5.356;2023-04-03T14:16:19;13.20;79.00
40822;DHT22;26542;50.836;5.356;2023-04-03T14:18:46;13.20;77.90
40822;DHT22;26542;50.836;5.356;2023-04-03T14:21:14;13.40;75.50
40822;DHT22;26542;50.836;5.356;2023-04-03T14:23:40;13.50;75.50
40822;DHT22;26542;50.836;5.356;2023-04-03T14:26:33;13.40;74.20
40822;DHT22;26542;50.836;5.356;2023-04-03T14:28:58;13.30;75.10
40822;DHT22;26542;50.836;5.356;2023-04-03T14:31:24;13.20;74.80
40822;DHT22;26542;50.836;5.356;2023-04-03T14:33:51;13.00;75.90
40822;DHT22;26542;50.836;5.356;2023-04-03T14:36:22;12.90;74.90
40822;DHT22;26542;50.836;5.356;2023-04-03T14:38:48;13.10;80.00
40822;DHT22;26542;50.836;5.356;2023-04-03T14:41:17;13.20;75.60
40822;DHT22;26542;50.836;5.356;2023-04-03T14:43:44;13.20;76.50
40822;DHT22;26542;50.836;5.356;2023-04-03T14:46:26;13.40;75.50
40822;DHT22;26542;50.836;5.356;2023-04-03T14:48:53;13.30;73.00
40822;DHT22;26542;50.836;5.356;2023-04-03T14:51:19;13.20;76.30
40822;DHT22;26542;50.836;5.356;2023-04-03T14:53:46;13.20;76.80
40822;DHT22;26542;50.836;5.356;2023-04-03T14:56:22;13.20;75.40
40822;DHT22;26542;50.836;5.356;2023-04-03T14:58:50;13.10;75.50
40822;DHT22;26542;50.836;5.356;2023-04-03T15:01:18;13.00;74.30
40822;DHT22;26542;50.836;5.356;2023-04-03T15:03:44;12.90;76.40
40822;DHT22;26542;50.836;5.356;2023-04-03T15:06:13;13.00;77.50
40822;DHT22;26542;50.836;5.356;2023-04-03T15:08:40;13.10;74.30
40822;DHT22;26542;50.836;5.356;2023-04-03T15:11:08;13.20;76.10
40822;DHT22;26542;50.836;5.356;2023-04-03T15:13:34;13.20;78.00
40822;DHT22;26542;50.836;5.356;2023-04-03T15:16:00;13.20;77.20
40822;DHT22;26542;50.836;5.356;2023-04-03T15:18:27;13.30;76.40
40822;DHT22;26542;50.836;5.356;2023-04-03T15:20:55;13.40;75.60
40822;DHT22;26542;50.836;5.356;2023-04-03T15:23:21;13.40;74.20
40822;DHT22;26542;50.836;5.356;2023-04-03T15:25:52;13.30;76.70
40822;DHT22;26542;50.836;5.356;2023-04-03T15:28:28;13.20;75.10
40822;DHT22;26542;50.836;5.356;2023-04-03T15:30:54;13.20;78.60
40822;DHT22;26542;50.836;5.356;2023-04-03T15:33:20;13.20;73.80
40822;DHT22;26542;50.836;5.356;2023-04-03T15:35:45;13.20;75.30
40822;DHT22;26542;50.836;5.356;2023-04-03T15:38:11;13.00;72.70
40822;DHT22;26542;50.836;5.356;2023-04-03T15:40:37;12.90;72.20
40822;DHT22;26542;50.836;5.356;2023-04-03T15:43:04;12.80;75.20
40822;DHT22;26542;50.836;5.356;2023-04-03T15:45:32;12.80;76.10
40822;DHT22;26542;50.836;5.356;2023-04-03T15:47:59;12.90;75.10
40822;DHT22;26542;50.836;5.356;2023-04-03T15:50:25;12.80;76.80
40822;DHT22;26542;50.836;5.356;2023-04-03T15:52:51;12.80;74.60
40822;DHT22;26542;50.836;5.356;2023-04-03T15:55:26;12.80;75.90
40822;DHT22;26542;50.836;5.356;2023-04-03T15:57:56;12.90;73.70
40822;DHT22;26542;50.836;5.356;2023-04-03T16:00:23;12.80;75.00
40822;DHT22;26542;50.836;5.356;2023-04-03T16:02:51;12.80;73.70
40822;DHT22;26542;50.836;5.356;2023-04-03T16:05:18;12.80;73.20
40822;DHT22;26542;50.836;5.356;2023-04-03T16:07:45;12.60;73.10
40822;DHT22;26542;50.836;5.356;2023-04-03T16:10:11;12.60;74.60
40822;DHT22;26542;50.836;5.356;2023-04-03T16:12:38;12.60;76.00
40822;DHT22;26542;50.836;5.356;2023-04-03T16:15:04;12.70;74.90
40822;DHT22;26542;50.836;5.356;2023-04-03T16:17:31;12.60;75.50
40822;DHT22;26542;50.836;5.356;2023-04-03T16:19:58;12.50;76.10
40822;DHT22;26542;50.836;5.356;2023-04-03T16:22:25;12.70;75.80
40822;DHT22;26542;50.836;5.356;2023-04-03T16:24:51;12.70;75.20
40822;DHT22;26542;50.836;5.356;2023-04-03T16:27:17;12.70;77.20
40822;DHT22;26542;50.836;5.356;2023-04-03T16:29:43;12.60;77.40
40822;DHT22;26542;50.836;5.356;2023-04-03T16:32:09;12.60;78.70
40822;DHT22;26542;50.836;5.356;2023-04-03T16:34:35;12.60;76.30
40822;DHT22;26542;50.836;5.356;2023-04-03T16:37:00;12.60;78.10
40822;DHT22;26542;50.836;5.356;2023-04-03T16:39:26;12.60;76.10
40822;DHT22;26542;50.836;5.356;2023-04-03T16:41:52;12.40;75.30
40822;DHT22;26542;50.836;5.356;2023-04-03T16:44:18;12.30;75.50
40822;DHT22;26542;50.836;5.356;2023-04-03T16:46:44;12.30;76.00
40822;DHT22;26542;50.836;5.356;2023-04-03T16:49:09;12.40;76.30
40822;DHT22;26542;50.836;5.356;2023-04-03T16:51:35;12.20;75.40
40822;DHT22;26542;50.836;5.356;2023-04-03T16:54:01;12.10;76.00
40822;DHT22;26542;50.836;5.356;2023-04-03T16:56:27;12.00;74.90
40822;DHT22;26542;50.836;5.356;2023-04-03T16:58:53;11.80;75.30
40822;DHT22;26542;50.836;5.356;2023-04-03T17:01:20;11.80;78.10
40822;DHT22;26542;50.836;5.356;2023-04-03T17:03:46;11.70;76.30
40822;DHT22;26542;50.836;5.356;2023-04-03T17:06:17;11.60;77.90
40822;DHT22;26542;50.836;5.356;2023-04-03T17:08:43;11.50;77.30
40822;DHT22;26542;50.836;5.356;2023-04-03T17:11:09;11.60;78.20
40822;DHT22;26542;50.836;5.356;2023-04-03T17:13:35;11.50;77.20
40822;DHT22;26542;50.836;5.356;2023-04-03T17:16:03;11.50;78.60
40822;DHT22;26542;50.836;5.356;2023-04-03T17:18:31;11.30;76.40
40822;DHT22;26542;50.836;5.356;2023-04-03T17:20:58;11.30;79.70
40822;DHT22;26542;50.836;5.356;2023-04-03T17:23:30;11.10;78.00
40822;DHT22;26542;50.836;5.356;2023-04-03T17:25:55;11.00;78.60
40822;DHT22;26542;50.836;5.356;2023-04-03T17:28:22;10.90;78.70
40822;DHT22;26542;50.836;5.356;2023-04-03T17:30:54;10.90;79.30
40822;DHT22;26542;50.836;5.356;2023-04-03T17:33:20;10.90;80.00
40822;DHT22;26542;50.836;5.356;2023-04-03T17:35:46;10.90;80.20
40822;DHT22;26542;50.836;5.356;2023-04-03T17:38:12;10.90;81.40
40822;DHT22;26542;50.836;5.356;2023-04-03T17:40:38;10.70;81.00
40822;DHT22;26542;50.836;5.356;2023-04-03T17:43:04;10.60;80.60
40822;DHT22;26542;50.836;5.356;2023-04-03T17:45:30;10.50;81.00
40822;DHT22;26542;50.836;5.356;2023-04-03T17:47:55;10.30;81.00
40822;DHT22;26542;50.836;5.356;2023-04-03T17:50:21;10.20;81.90
40822;DHT22;26542;50.836;5.356;2023-04-03T17:52:47;10.10;81.10
40822;DHT22;26542;50.836;5.356;2023-04-03T17:55:13;10.10;82.20
40822;DHT22;26542;50.836;5.356;2023-04-03T17:57:40;10.00;81.40
40822;DHT22;26542;50.836;5.356;2023-04-03T18:00:06;10.00;81.10